sensor_id;sensor_type;location;lat;lon;timestamp;P1;durP1;ratioP1;P2;durP2;ratioP2
29984;SDS011;17387;42.690;23.328;2023-03-14T00:01:56;13.98;;;8.02;;
29984;SDS011;17387;42.690;23.328;2023-03-14T00:04:22;13.88;;;7.80;;
29984;SDS011;17387;42.690;23.328;2023-03-14T00:06:47;12.48;;;7.40;;
29984;SDS011;17387;42.690;23.328;2023-03-14T00:09:13;14.63;;;7.65;;
29984;SDS011;17387;42.690;23.328;2023-03-14T00:11:38;17.50;;;7.32;;
29984;SDS011;17387;42.690;23.328;2023-03-14T00:14:03;13.45;;;7.60;;
29984;SDS011;17387;42.690;23.328;2023-03-14T00:16:28;11.63;;;7.30;;
29984;SDS011;17387;42.690;23.328;2023-03-14T00:18:54;15.98;;;7.28;;
29984;SDS011;17387;42.690;23.328;2023-03-14T00:21:19;12.30;;;7.10;;
29984;SDS011;17387;42.690;23.328;2023-03-14T00:23:44;17.45;;;7.30;;
29984;SDS011;17387;42.690;23.328;2023-03-14T00:26:11;12.70;;;7.32;;
29984;SDS011;17387;42.690;23.328;2023-03-14T00:28:37;14.27;;;7.72;;
29984;SDS011;17387;42.690;23.328;2023-03-14T00:31:05;13.65;;;7.38;;
29984;SDS011;17387;42.690;23.328;2023-03-14T00:33:30;13.75;;;7.05;;
29984;SDS011;17387;42.690;23.328;2023-03-14T00:36:00;11.25;;;6.30;;
29984;SDS011;17387;42.690;23.328;2023-03-14T00:38:25;12.65;;;6.75;;
29984;SDS011;17387;42.690;23.328;2023-03-14T00:40:51;12.65;;;6.65;;
29984;SDS011;17387;42.690;23.328;2023-03-14T00:43:17;10.57;;;6.28;;
29984;SDS011;17387;42.690;23.328;2023-03-14T00:45:42;11.13;;;6.15;;
29984;SDS011;17387;42.690;23.328;2023-03-14T00:48:07;11.27;;;6.20;;
29984;SDS011;17387;42.690;23.328;2023-03-14T00:50:32;12.25;;;6.53;;
29984;SDS011;17387;42.690;23.328;2023-03-14T00:52:57;12.77;;;6.63;;
29984;SDS011;17387;42.690;23.328;2023-03-14T00:55:23;11.00;;;6.18;;
29984;SDS011;17387;42.690;23.328;2023-03-14T00:57:49;11.65;;;6.40;;
29984;SDS011;17387;42.690;23.328;2023-03-14T01:00:14;13.30;;;6.75;;
29984;SDS011;17387;42.690;23.328;2023-03-14T01:02:39;13.75;;;6.85;;
29984;SDS011;17387;42.690;23.328;2023-03-14T01:05:04;10.98;;;6.43;;
29984;SDS011;17387;42.690;23.328;2023-03-14T01:07:30;14.40;;;7.10;;
29984;SDS011;17387;42.690;23.328;2023-03-14T01:09:55;10.93;;;6.72;;
29984;SDS011;17387;42.690;23.328;2023-03-14T01:12:20;12.52;;;6.55;;
29984;SDS011;17387;42.690;23.328;2023-03-14T01:14:45;14.70;;;8.00;;
29984;SDS011;17387;42.690;23.328;2023-03-14T01:17:11;12.55;;;6.78;;
29984;SDS011;17387;42.690;23.328;2023-03-14T01:19:36;12.80;;;7.10;;
29984;SDS011;17387;42.690;23.328;2023-03-14T01:22:01;14.63;;;7.80;;
29984;SDS011;17387;42.690;23.328;2023-03-14T01:24:27;12.68;;;6.97;;
29984;SDS011;17387;42.690;23.328;2023-03-14T01:26:52;12.68;;;6.97;;
29984;SDS011;17387;42.690;23.328;2023-03-14T01:29:17;12.98;;;6.93;;
29984;SDS011;17387;42.690;23.328;2023-03-14T01:31:42;14.00;;;7.00;;
29984;SDS011;17387;42.690;23.328;2023-03-14T01:34:08;10.93;;;6.43;;
29984;SDS011;17387;42.690;23.328;2023-03-14T01:36:33;13.98;;;7.60;;
29984;SDS011;17387;42.690;23.328;2023-03-14T01:38:58;11.40;;;6.50;;
29984;SDS011;17387;42.690;23.328;2023-03-14T01:41:24;9.88;;;6.38;;
29984;SDS011;17387;42.690;23.328;2023-03-14T01:43:50;12.05;;;6.43;;
29984;SDS011;17387;42.690;23.328;2023-03-14T01:54:08;12.15;;;7.75;;
29984;SDS011;17387;42.690;23.328;2023-03-14T01:56:34;14.68;;;7.10;;
29984;SDS011;17387;42.690;23.328;2023-03-14T01:59:00;12.95;;;7.60;;
29984;SDS011;17387;42.690;23.328;2023-03-14T02:01:27;17.05;;;8.98;;
29984;SDS011;17387;42.690;23.328;2023-03-14T02:03:54;23.27;;;10.70;;
29984;SDS011;17387;42.690;23.328;2023-03-14T02:06:20;25.63;;;11.55;;
29984;SDS011;17387;42.690;23.328;2023-03-14T02:08:47;19.30;;;9.35;;
29984;SDS011;17387;42.690;23.328;2023-03-14T02:11:14;18.05;;;9.35;;
29984;SDS011;17387;42.690;23.328;2023-03-14T02:13:39;18.00;;;9.13;;
29984;SDS011;17387;42.690;23.328;2023-03-14T02:16:05;15.80;;;8.85;;
29984;SDS011;17387;42.690;23.328;2023-03-14T02:18:30;20.80;;;10.38;;
29984;SDS011;17387;42.690;23.328;2023-03-14T02:23:37;23.33;;;12.10;;
29984;SDS011;17387;42.690;23.328;2023-03-14T02:26:06;36.05;;;18.85;;
29984;SDS011;17387;42.690;23.328;2023-03-14T02:28:33;27.52;;;13.77;;
29984;SDS011;17387;42.690;23.328;2023-03-14T02:30:58;29.35;;;15.10;;
29984;SDS011;17387;42.690;23.328;2023-03-14T02:33:24;27.88;;;13.45;;
29984;SDS011;17387;42.690;23.328;2023-03-14T02:35:56;29.52;;;15.55;;
29984;SDS011;17387;42.690;23.328;2023-03-14T02:38:30;29.05;;;15.75;;
29984;SDS011;17387;42.690;23.328;2023-03-14T02:40:56;29.50;;;15.57;;
29984;SDS011;17387;42.690;23.328;2023-03-14T02:43:21;28.67;;;14.18;;
29984;SDS011;17387;42.690;23.328;2023-03-14T02:45:47;24.33;;;11.05;;
29984;SDS011;17387;42.690;23.328;2023-03-14T02:48:20;23.38;;;12.35;;
29984;SDS011;17387;42.690;23.328;2023-03-14T02:50:47;22.70;;;11.65;;
29984;SDS011;17387;42.690;23.328;2023-03-14T02:53:14;23.98;;;12.25;;
29984;SDS011;17387;42.690;23.328;2023-03-14T02:55:44;22.58;;;12.80;;
29984;SDS011;17387;42.690;23.328;2023-03-14T02:58:09;22.20;;;12.43;;
29984;SDS011;17387;42.690;23.328;2023-03-14T03:00:34;21.85;;;12.00;;
29984;SDS011;17387;42.690;23.328;2023-03-14T03:03:00;23.85;;;12.23;;
29984;SDS011;17387;42.690;23.328;2023-03-14T03:05:25;23.15;;;13.30;;
29984;SDS011;17387;42.690;23.328;2023-03-14T03:07:51;25.10;;;12.63;;
29984;SDS011;17387;42.690;23.328;2023-03-14T03:10:16;24.60;;;12.63;;
29984;SDS011;17387;42.690;23.328;2023-03-14T03:12:41;25.25;;;13.05;;
29984;SDS011;17387;42.690;23.328;2023-03-14T03:15:07;28.15;;;13.57;;
29984;SDS011;17387;42.690;23.328;2023-03-14T03:17:32;28.67;;;12.45;;
29984;SDS011;17387;42.690;23.328;2023-03-14T03:19:57;24.85;;;13.38;;
29984;SDS011;17387;42.690;23.328;2023-03-14T03:22:23;23.88;;;13.18;;
29984;SDS011;17387;42.690;23.328;2023-03-14T03:24:48;25.98;;;13.38;;
29984;SDS011;17387;42.690;23.328;2023-03-14T03:27:13;27.40;;;13.60;;
29984;SDS011;17387;42.690;23.328;2023-03-14T03:29:39;22.48;;;12.95;;
29984;SDS011;17387;42.690;23.328;2023-03-14T03:32:04;29.38;;;14.18;;
29984;SDS011;17387;42.690;23.328;2023-03-14T03:34:29;31.10;;;13.98;;
29984;SDS011;17387;42.690;23.328;2023-03-14T03:36:57;28.52;;;15.10;;
29984;SDS011;17387;42.690;23.328;2023-03-14T03:39:23;33.03;;;16.60;;
29984;SDS011;17387;42.690;23.328;2023-03-14T03:41:48;29.40;;;16.20;;
29984;SDS011;17387;42.690;23.328;2023-03-14T03:44:13;29.48;;;15.80;;
29984;SDS011;17387;42.690;23.328;2023-03-14T03:46:38;30.88;;;14.40;;
29984;SDS011;17387;42.690;23.328;2023-03-14T03:49:04;28.40;;;14.70;;
29984;SDS011;17387;42.690;23.328;2023-03-14T03:51:29;29.00;;;14.82;;
29984;SDS011;17387;42.690;23.328;2023-03-14T03:53:55;27.83;;;14.13;;
29984;SDS011;17387;42.690;23.328;2023-03-14T03:56:20;26.70;;;14.10;;
29984;SDS011;17387;42.690;23.328;2023-03-14T03:58:46;28.95;;;15.93;;
29984;SDS011;17387;42.690;23.328;2023-03-14T04:01:11;31.55;;;16.33;;
29984;SDS011;17387;42.690;23.328;2023-03-14T04:03:36;32.75;;;17.30;;
29984;SDS011;17387;42.690;23.328;2023-03-14T04:06:12;32.72;;;18.10;;
29984;SDS011;17387;42.690;23.328;2023-03-14T04:08:38;29.45;;;15.45;;
29984;SDS011;17387;42.690;23.328;2023-03-14T04:11:05;31.15;;;17.30;;
29984;SDS011;17387;42.690;23.328;2023-03-14T04:13:30;35.67;;;17.55;;
29984;SDS011;17387;42.690;23.328;2023-03-14T04:15:56;29.25;;;16.15;;
29984;SDS011;17387;42.690;23.328;2023-03-14T04:18:21;30.60;;;16.95;;
29984;SDS011;17387;42.690;23.328;2023-03-14T04:20:50;28.52;;;16.05;;
29984;SDS011;17387;42.690;23.328;2023-03-14T04:23:16;28.85;;;16.75;;
29984;SDS011;17387;42.690;23.328;2023-03-14T04:25:41;29.20;;;17.17;;
29984;SDS011;17387;42.690;23.328;2023-03-14T04:28:06;34.55;;;17.33;;
29984;SDS011;17387;42.690;23.328;2023-03-14T04:30:31;29.15;;;15.98;;
29984;SDS011;17387;42.690;23.328;2023-03-14T04:32:56;27.27;;;15.77;;
29984;SDS011;17387;42.690;23.328;2023-03-14T04:35:22;33.05;;;16.67;;
29984;SDS011;17387;42.690;23.328;2023-03-14T04:37:47;28.85;;;15.18;;
29984;SDS011;17387;42.690;23.328;2023-03-14T04:40:14;30.85;;;15.35;;
29984;SDS011;17387;42.690;23.328;2023-03-14T04:42:39;29.83;;;16.00;;
29984;SDS011;17387;42.690;23.328;2023-03-14T04:45:07;32.10;;;16.80;;
29984;SDS011;17387;42.690;23.328;2023-03-14T04:47:33;32.10;;;15.90;;
29984;SDS011;17387;42.690;23.328;2023-03-14T04:49:58;34.95;;;18.40;;
29984;SDS011;17387;42.690;23.328;2023-03-14T04:52:23;32.03;;;16.48;;
29984;SDS011;17387;42.690;23.328;2023-03-14T04:54:48;31.17;;;16.55;;
29984;SDS011;17387;42.690;23.328;2023-03-14T04:57:14;33.78;;;15.65;;
29984;SDS011;17387;42.690;23.328;2023-03-14T04:59:39;32.30;;;15.43;;
29984;SDS011;17387;42.690;23.328;2023-03-14T05:02:04;30.13;;;15.55;;
29984;SDS011;17387;42.690;23.328;2023-03-14T05:04:29;33.15;;;16.02;;
29984;SDS011;17387;42.690;23.328;2023-03-14T05:06:57;30.23;;;16.17;;
29984;SDS011;17387;42.690;23.328;2023-03-14T05:09:23;29.95;;;16.38;;
29984;SDS011;17387;42.690;23.328;2023-03-14T05:11:48;32.00;;;17.00;;
29984;SDS011;17387;42.690;23.328;2023-03-14T05:14:13;30.58;;;17.30;;
29984;SDS011;17387;42.690;23.328;2023-03-14T05:16:38;35.05;;;16.35;;
29984;SDS011;17387;42.690;23.328;2023-03-14T05:19:03;30.23;;;16.75;;
29984;SDS011;17387;42.690;23.328;2023-03-14T05:21:29;30.70;;;16.67;;
29984;SDS011;17387;42.690;23.328;2023-03-14T05:23:54;30.80;;;16.80;;
29984;SDS011;17387;42.690;23.328;2023-03-14T05:26:19;31.63;;;16.33;;
29984;SDS011;17387;42.690;23.328;2023-03-14T05:28:45;38.00;;;17.08;;
29984;SDS011;17387;42.690;23.328;2023-03-14T05:31:10;33.97;;;17.15;;
29984;SDS011;17387;42.690;23.328;2023-03-14T05:33:35;33.90;;;17.50;;
29984;SDS011;17387;42.690;23.328;2023-03-14T05:36:00;34.15;;;17.85;;
29984;SDS011;17387;42.690;23.328;2023-03-14T05:38:26;36.53;;;19.00;;
29984;SDS011;17387;42.690;23.328;2023-03-14T05:40:51;40.67;;;18.77;;
29984;SDS011;17387;42.690;23.328;2023-03-14T05:43:16;43.60;;;19.70;;
29984;SDS011;17387;42.690;23.328;2023-03-14T05:45:42;44.65;;;19.70;;
29984;SDS011;17387;42.690;23.328;2023-03-14T05:48:07;39.50;;;21.63;;
29984;SDS011;17387;42.690;23.328;2023-03-14T05:50:33;39.50;;;19.17;;
29984;SDS011;17387;42.690;23.328;2023-03-14T05:52:58;39.33;;;19.13;;
29984;SDS011;17387;42.690;23.328;2023-03-14T05:55:23;39.63;;;19.55;;
29984;SDS011;17387;42.690;23.328;2023-03-14T05:57:49;44.40;;;19.77;;
29984;SDS011;17387;42.690;23.328;2023-03-14T06:00:14;38.97;;;19.80;;
29984;SDS011;17387;42.690;23.328;2023-03-14T06:02:39;34.22;;;18.85;;
29984;SDS011;17387;42.690;23.328;2023-03-14T06:05:05;39.05;;;20.98;;
29984;SDS011;17387;42.690;23.328;2023-03-14T06:07:30;39.10;;;20.52;;
29984;SDS011;17387;42.690;23.328;2023-03-14T06:09:55;39.67;;;20.42;;
29984;SDS011;17387;42.690;23.328;2023-03-14T06:12:21;41.03;;;21.38;;
29984;SDS011;17387;42.690;23.328;2023-03-14T06:14:46;38.10;;;19.90;;
29984;SDS011;17387;42.690;23.328;2023-03-14T06:17:11;40.15;;;20.30;;
29984;SDS011;17387;42.690;23.328;2023-03-14T06:19:36;37.88;;;21.25;;
29984;SDS011;17387;42.690;23.328;2023-03-14T06:22:02;42.47;;;22.00;;
29984;SDS011;17387;42.690;23.328;2023-03-14T06:24:27;44.20;;;23.95;;
29984;SDS011;17387;42.690;23.328;2023-03-14T06:26:52;46.28;;;23.80;;
29984;SDS011;17387;42.690;23.328;2023-03-14T06:29:18;46.53;;;21.25;;
29984;SDS011;17387;42.690;23.328;2023-03-14T06:31:44;42.13;;;21.20;;
29984;SDS011;17387;42.690;23.328;2023-03-14T06:34:09;41.30;;;21.05;;
29984;SDS011;17387;42.690;23.328;2023-03-14T06:36:34;40.25;;;20.65;;
29984;SDS011;17387;42.690;23.328;2023-03-14T06:38:59;37.67;;;19.63;;
29984;SDS011;17387;42.690;23.328;2023-03-14T06:41:25;49.53;;;21.10;;
29984;SDS011;17387;42.690;23.328;2023-03-14T06:43:51;38.63;;;20.70;;
29984;SDS011;17387;42.690;23.328;2023-03-14T06:46:16;43.47;;;21.25;;
29984;SDS011;17387;42.690;23.328;2023-03-14T06:48:42;42.22;;;21.08;;
29984;SDS011;17387;42.690;23.328;2023-03-14T06:51:07;43.92;;;21.98;;
29984;SDS011;17387;42.690;23.328;2023-03-14T06:53:33;37.33;;;20.73;;
29984;SDS011;17387;42.690;23.328;2023-03-14T06:55:58;44.08;;;19.00;;
29984;SDS011;17387;42.690;23.328;2023-03-14T06:58:23;38.03;;;20.73;;
29984;SDS011;17387;42.690;23.328;2023-03-14T07:00:48;42.08;;;20.45;;
29984;SDS011;17387;42.690;23.328;2023-03-14T07:03:14;31.30;;;17.65;;
29984;SDS011;17387;42.690;23.328;2023-03-14T07:05:39;33.35;;;19.27;;
29984;SDS011;17387;42.690;23.328;2023-03-14T07:08:06;35.00;;;18.08;;
29984;SDS011;17387;42.690;23.328;2023-03-14T07:10:31;35.13;;;19.02;;
29984;SDS011;17387;42.690;23.328;2023-03-14T07:12:56;44.33;;;19.80;;
29984;SDS011;17387;42.690;23.328;2023-03-14T07:15:21;39.03;;;19.83;;
29984;SDS011;17387;42.690;23.328;2023-03-14T07:17:47;35.45;;;20.42;;
29984;SDS011;17387;42.690;23.328;2023-03-14T07:20:13;38.78;;;21.58;;
29984;SDS011;17387;42.690;23.328;2023-03-14T07:22:38;47.05;;;21.58;;
29984;SDS011;17387;42.690;23.328;2023-03-14T07:25:03;41.17;;;19.30;;
29984;SDS011;17387;42.690;23.328;2023-03-14T07:27:29;38.72;;;19.95;;
29984;SDS011;17387;42.690;23.328;2023-03-14T07:29:54;39.15;;;19.27;;
29984;SDS011;17387;42.690;23.328;2023-03-14T07:32:19;42.13;;;19.20;;
29984;SDS011;17387;42.690;23.328;2023-03-14T07:34:44;33.10;;;18.20;;
29984;SDS011;17387;42.690;23.328;2023-03-14T07:37:10;34.65;;;18.88;;
29984;SDS011;17387;42.690;23.328;2023-03-14T07:39:35;42.90;;;18.85;;
29984;SDS011;17387;42.690;23.328;2023-03-14T07:42:00;32.22;;;17.20;;
29984;SDS011;17387;42.690;23.328;2023-03-14T07:44:26;38.22;;;17.98;;
29984;SDS011;17387;42.690;23.328;2023-03-14T07:46:51;30.73;;;17.05;;
29984;SDS011;17387;42.690;23.328;2023-03-14T07:49:16;38.67;;;17.95;;
29984;SDS011;17387;42.690;23.328;2023-03-14T07:51:42;38.15;;;19.83;;
29984;SDS011;17387;42.690;23.328;2023-03-14T07:54:09;38.63;;;19.30;;
29984;SDS011;17387;42.690;23.328;2023-03-14T07:56:34;33.13;;;16.23;;
29984;SDS011;17387;42.690;23.328;2023-03-14T07:58:59;25.90;;;14.82;;
29984;SDS011;17387;42.690;23.328;2023-03-14T08:01:25;34.80;;;16.27;;
29984;SDS011;17387;42.690;23.328;2023-03-14T08:03:50;28.83;;;16.02;;
29984;SDS011;17387;42.690;23.328;2023-03-14T08:06:15;30.20;;;15.30;;
29984;SDS011;17387;42.690;23.328;2023-03-14T08:08:40;31.60;;;16.65;;
29984;SDS011;17387;42.690;23.328;2023-03-14T08:11:06;41.13;;;15.60;;
29984;SDS011;17387;42.690;23.328;2023-03-14T08:13:33;21.90;;;12.85;;
29984;SDS011;17387;42.690;23.328;2023-03-14T08:15:59;27.63;;;13.82;;
29984;SDS011;17387;42.690;23.328;2023-03-14T08:18:24;26.50;;;13.30;;
29984;SDS011;17387;42.690;23.328;2023-03-14T08:20:49;25.13;;;13.15;;
29984;SDS011;17387;42.690;23.328;2023-03-14T08:23:15;21.95;;;12.15;;
29984;SDS011;17387;42.690;23.328;2023-03-14T08:25:40;23.13;;;13.65;;
29984;SDS011;17387;42.690;23.328;2023-03-14T08:28:05;20.27;;;11.52;;
29984;SDS011;17387;42.690;23.328;2023-03-14T08:30:30;24.00;;;11.38;;
29984;SDS011;17387;42.690;23.328;2023-03-14T08:32:56;26.00;;;13.82;;
29984;SDS011;17387;42.690;23.328;2023-03-14T08:35:22;19.02;;;10.68;;
29984;SDS011;17387;42.690;23.328;2023-03-14T08:37:47;19.20;;;10.30;;
29984;SDS011;17387;42.690;23.328;2023-03-14T08:40:13;20.35;;;9.88;;
29984;SDS011;17387;42.690;23.328;2023-03-14T08:42:39;18.38;;;9.77;;
29984;SDS011;17387;42.690;23.328;2023-03-14T08:45:04;14.57;;;9.15;;
29984;SDS011;17387;42.690;23.328;2023-03-14T08:47:30;16.95;;;10.32;;
29984;SDS011;17387;42.690;23.328;2023-03-14T08:49:55;16.65;;;9.48;;
29984;SDS011;17387;42.690;23.328;2023-03-14T08:52:20;21.35;;;9.68;;
29984;SDS011;17387;42.690;23.328;2023-03-14T08:54:46;17.40;;;10.07;;
29984;SDS011;17387;42.690;23.328;2023-03-14T08:57:11;19.42;;;11.07;;
29984;SDS011;17387;42.690;23.328;2023-03-14T08:59:37;17.05;;;10.00;;
29984;SDS011;17387;42.690;23.328;2023-03-14T09:02:02;21.25;;;12.02;;
29984;SDS011;17387;42.690;23.328;2023-03-14T09:04:28;19.10;;;10.95;;
29984;SDS011;17387;42.690;23.328;2023-03-14T09:06:54;18.58;;;10.05;;
29984;SDS011;17387;42.690;23.328;2023-03-14T09:09:19;21.95;;;9.52;;
29984;SDS011;17387;42.690;23.328;2023-03-14T09:11:44;18.05;;;9.68;;
29984;SDS011;17387;42.690;23.328;2023-03-14T09:14:09;21.92;;;10.40;;
29984;SDS011;17387;42.690;23.328;2023-03-14T09:16:35;18.38;;;10.27;;
29984;SDS011;17387;42.690;23.328;2023-03-14T09:19:00;15.80;;;10.02;;
29984;SDS011;17387;42.690;23.328;2023-03-14T09:21:26;13.57;;;8.35;;
29984;SDS011;17387;42.690;23.328;2023-03-14T09:23:51;16.55;;;8.68;;
29984;SDS011;17387;42.690;23.328;2023-03-14T09:26:16;15.80;;;8.73;;
29984;SDS011;17387;42.690;23.328;2023-03-14T09:28:41;16.05;;;9.00;;
29984;SDS011;17387;42.690;23.328;2023-03-14T09:31:07;13.38;;;8.35;;
29984;SDS011;17387;42.690;23.328;2023-03-14T09:33:33;16.13;;;9.63;;
29984;SDS011;17387;42.690;23.328;2023-03-14T09:35:58;15.77;;;9.23;;
29984;SDS011;17387;42.690;23.328;2023-03-14T09:38:24;14.85;;;8.93;;
29984;SDS011;17387;42.690;23.328;2023-03-14T09:40:50;14.80;;;8.82;;
29984;SDS011;17387;42.690;23.328;2023-03-14T09:43:15;13.95;;;8.38;;
29984;SDS011;17387;42.690;23.328;2023-03-14T09:45:41;21.90;;;11.95;;
29984;SDS011;17387;42.690;23.328;2023-03-14T09:48:11;25.35;;;12.50;;
29984;SDS011;17387;42.690;23.328;2023-03-14T09:50:39;49.47;;;24.37;;
29984;SDS011;17387;42.690;23.328;2023-03-14T09:53:07;14.38;;;7.20;;
29984;SDS011;17387;42.690;23.328;2023-03-14T09:55:34;12.88;;;7.38;;
29984;SDS011;17387;42.690;23.328;2023-03-14T09:58:00;12.70;;;7.90;;
29984;SDS011;17387;42.690;23.328;2023-03-14T10:00:27;19.85;;;9.20;;
29984;SDS011;17387;42.690;23.328;2023-03-14T10:02:59;21.05;;;8.52;;
29984;SDS011;17387;42.690;23.328;2023-03-14T10:05:27;9.48;;;6.30;;
29984;SDS011;17387;42.690;23.328;2023-03-14T10:07:54;12.10;;;7.00;;
29984;SDS011;17387;42.690;23.328;2023-03-14T10:10:20;12.32;;;6.82;;
29984;SDS011;17387;42.690;23.328;2023-03-14T10:12:55;24.55;;;12.90;;
29984;SDS011;17387;42.690;23.328;2023-03-14T10:15:28;12.25;;;7.00;;
29984;SDS011;17387;42.690;23.328;2023-03-14T10:17:54;16.75;;;8.88;;
29984;SDS011;17387;42.690;23.328;2023-03-14T10:20:30;17.05;;;9.70;;
29984;SDS011;17387;42.690;23.328;2023-03-14T10:23:03;12.88;;;8.15;;
29984;SDS011;17387;42.690;23.328;2023-03-14T10:25:30;15.73;;;9.70;;
29984;SDS011;17387;42.690;23.328;2023-03-14T10:27:55;19.08;;;10.27;;
29984;SDS011;17387;42.690;23.328;2023-03-14T10:30:28;20.50;;;9.82;;
29984;SDS011;17387;42.690;23.328;2023-03-14T10:32:54;16.27;;;10.98;;
29984;SDS011;17387;42.690;23.328;2023-03-14T10:35:20;13.88;;;8.55;;
29984;SDS011;17387;42.690;23.328;2023-03-14T10:37:56;18.02;;;9.90;;
29984;SDS011;17387;42.690;23.328;2023-03-14T10:40:26;17.73;;;10.07;;
29984;SDS011;17387;42.690;23.328;2023-03-14T10:42:52;24.67;;;10.00;;
29984;SDS011;17387;42.690;23.328;2023-03-14T10:45:36;16.10;;;8.13;;
29984;SDS011;17387;42.690;23.328;2023-03-14T10:48:07;14.45;;;8.80;;
29984;SDS011;17387;42.690;23.328;2023-03-14T10:53:21;14.65;;;7.82;;
29984;SDS011;17387;42.690;23.328;2023-03-14T10:55:47;12.38;;;7.20;;
29984;SDS011;17387;42.690;23.328;2023-03-14T11:00:50;18.35;;;11.88;;
29984;SDS011;17387;42.690;23.328;2023-03-14T11:03:16;17.08;;;9.55;;
29984;SDS011;17387;42.690;23.328;2023-03-14T11:05:55;16.63;;;6.72;;
29984;SDS011;17387;42.690;23.328;2023-03-14T11:10:48;16.15;;;9.20;;
29984;SDS011;17387;42.690;23.328;2023-03-14T11:20:58;17.13;;;7.80;;
29984;SDS011;17387;42.690;23.328;2023-03-14T11:26:17;9.73;;;5.50;;
29984;SDS011;17387;42.690;23.328;2023-03-14T11:28:49;8.30;;;4.55;;
29984;SDS011;17387;42.690;23.328;2023-03-14T11:36:38;12.10;;;5.43;;
29984;SDS011;17387;42.690;23.328;2023-03-14T11:39:07;12.95;;;4.90;;
29984;SDS011;17387;42.690;23.328;2023-03-14T11:41:36;10.70;;;6.63;;
29984;SDS011;17387;42.690;23.328;2023-03-14T11:44:04;11.90;;;6.60;;
29984;SDS011;17387;42.690;23.328;2023-03-14T11:46:36;7.20;;;4.75;;
29984;SDS011;17387;42.690;23.328;2023-03-14T11:52:03;6.73;;;4.83;;
29984;SDS011;17387;42.690;23.328;2023-03-14T11:56:55;10.48;;;5.32;;
29984;SDS011;17387;42.690;23.328;2023-03-14T11:59:27;9.95;;;4.45;;
29984;SDS011;17387;42.690;23.328;2023-03-14T12:02:03;7.22;;;3.90;;
29984;SDS011;17387;42.690;23.328;2023-03-14T12:06:57;6.50;;;3.90;;
29984;SDS011;17387;42.690;23.328;2023-03-14T12:09:26;9.00;;;5.20;;
29984;SDS011;17387;42.690;23.328;2023-03-14T12:11:59;9.52;;;5.68;;
29984;SDS011;17387;42.690;23.328;2023-03-14T12:14:35;26.45;;;10.85;;
29984;SDS011;17387;42.690;23.328;2023-03-14T12:17:20;8.82;;;4.78;;
29984;SDS011;17387;42.690;23.328;2023-03-14T12:19:46;8.73;;;4.97;;
29984;SDS011;17387;42.690;23.328;2023-03-14T12:24:37;5.70;;;3.50;;
29984;SDS011;17387;42.690;23.328;2023-03-14T12:27:04;9.77;;;4.45;;
29984;SDS011;17387;42.690;23.328;2023-03-14T12:29:30;10.18;;;4.20;;
29984;SDS011;17387;42.690;23.328;2023-03-14T12:32:12;8.48;;;4.10;;
29984;SDS011;17387;42.690;23.328;2023-03-14T12:34:45;8.07;;;4.93;;
29984;SDS011;17387;42.690;23.328;2023-03-14T12:42:10;4.43;;;2.67;;
29984;SDS011;17387;42.690;23.328;2023-03-14T12:44:40;5.30;;;3.40;;
29984;SDS011;17387;42.690;23.328;2023-03-14T12:49:58;5.82;;;3.45;;
29984;SDS011;17387;42.690;23.328;2023-03-14T12:52:34;6.85;;;3.10;;
29984;SDS011;17387;42.690;23.328;2023-03-14T12:55:10;4.00;;;2.70;;
29984;SDS011;17387;42.690;23.328;2023-03-14T13:00:30;12.93;;;4.78;;
29984;SDS011;17387;42.690;23.328;2023-03-14T13:03:00;5.88;;;3.47;;
29984;SDS011;17387;42.690;23.328;2023-03-14T13:05:27;6.28;;;3.80;;
29984;SDS011;17387;42.690;23.328;2023-03-14T13:10:23;10.10;;;4.30;;
29984;SDS011;17387;42.690;23.328;2023-03-14T13:13:23;5.50;;;2.67;;
29984;SDS011;17387;42.690;23.328;2023-03-14T13:15:42;5.68;;;3.00;;
29984;SDS011;17387;42.690;23.328;2023-03-14T13:20:53;4.15;;;2.25;;
29984;SDS011;17387;42.690;23.328;2023-03-14T13:23:19;6.45;;;2.50;;
29984;SDS011;17387;42.690;23.328;2023-03-14T13:25:44;4.07;;;2.60;;
29984;SDS011;17387;42.690;23.328;2023-03-14T13:28:11;7.13;;;2.80;;
29984;SDS011;17387;42.690;23.328;2023-03-14T13:30:39;3.13;;;2.40;;
29984;SDS011;17387;42.690;23.328;2023-03-14T13:33:05;4.90;;;2.40;;
29984;SDS011;17387;42.690;23.328;2023-03-14T13:35:38;4.05;;;2.42;;
29984;SDS011;17387;42.690;23.328;2023-03-14T13:38:03;4.25;;;2.30;;
29984;SDS011;17387;42.690;23.328;2023-03-14T13:40:30;5.80;;;2.97;;
29984;SDS011;17387;42.690;23.328;2023-03-14T13:43:04;5.28;;;2.60;;
29984;SDS011;17387;42.690;23.328;2023-03-14T13:45:30;6.00;;;2.30;;
29984;SDS011;17387;42.690;23.328;2023-03-14T13:47:55;4.05;;;2.63;;
29984;SDS011;17387;42.690;23.328;2023-03-14T13:50:21;7.50;;;2.95;;
29984;SDS011;17387;42.690;23.328;2023-03-14T13:52:46;4.83;;;3.20;;
29984;SDS011;17387;42.690;23.328;2023-03-14T13:55:17;7.38;;;3.30;;
29984;SDS011;17387;42.690;23.328;2023-03-14T13:57:46;6.78;;;3.55;;
29984;SDS011;17387;42.690;23.328;2023-03-14T14:00:18;4.70;;;3.53;;
29984;SDS011;17387;42.690;23.328;2023-03-14T14:02:44;10.10;;;6.40;;
29984;SDS011;17387;42.690;23.328;2023-03-14T14:05:12;5.25;;;3.00;;
29984;SDS011;17387;42.690;23.328;2023-03-14T14:07:38;5.95;;;3.05;;
29984;SDS011;17387;42.690;23.328;2023-03-14T14:10:04;7.30;;;3.03;;
29984;SDS011;17387;42.690;23.328;2023-03-14T14:12:36;4.85;;;3.30;;
29984;SDS011;17387;42.690;23.328;2023-03-14T14:17:38;5.55;;;3.20;;
29984;SDS011;17387;42.690;23.328;2023-03-14T14:20:28;7.15;;;4.28;;
29984;SDS011;17387;42.690;23.328;2023-03-14T14:22:56;8.73;;;3.75;;
29984;SDS011;17387;42.690;23.328;2023-03-14T14:25:22;4.80;;;3.00;;
29984;SDS011;17387;42.690;23.328;2023-03-14T14:27:48;9.30;;;4.53;;
29984;SDS011;17387;42.690;23.328;2023-03-14T14:32:42;5.55;;;3.95;;
29984;SDS011;17387;42.690;23.328;2023-03-14T14:35:10;8.13;;;4.13;;
29984;SDS011;17387;42.690;23.328;2023-03-14T14:37:41;9.48;;;5.25;;
29984;SDS011;17387;42.690;23.328;2023-03-14T14:40:09;5.47;;;3.10;;
29984;SDS011;17387;42.690;23.328;2023-03-14T14:42:38;4.53;;;3.00;;
29984;SDS011;17387;42.690;23.328;2023-03-14T14:45:04;7.35;;;4.22;;
29984;SDS011;17387;42.690;23.328;2023-03-14T14:47:31;6.53;;;3.35;;
29984;SDS011;17387;42.690;23.328;2023-03-14T14:49:58;6.82;;;3.20;;
29984;SDS011;17387;42.690;23.328;2023-03-14T14:52:31;7.07;;;3.20;;
29984;SDS011;17387;42.690;23.328;2023-03-14T14:54:58;6.55;;;3.38;;
29984;SDS011;17387;42.690;23.328;2023-03-14T14:57:25;4.38;;;2.67;;
29984;SDS011;17387;42.690;23.328;2023-03-14T14:59:54;8.07;;;3.70;;
29984;SDS011;17387;42.690;23.328;2023-03-14T15:02:30;7.20;;;4.00;;
29984;SDS011;17387;42.690;23.328;2023-03-14T15:04:57;7.38;;;3.45;;
29984;SDS011;17387;42.690;23.328;2023-03-14T15:07:22;5.95;;;3.03;;
29984;SDS011;17387;42.690;23.328;2023-03-14T15:09:47;11.02;;;5.60;;
29984;SDS011;17387;42.690;23.328;2023-03-14T15:12:12;11.37;;;4.53;;
29984;SDS011;17387;42.690;23.328;2023-03-14T15:14:38;15.20;;;5.68;;
29984;SDS011;17387;42.690;23.328;2023-03-14T15:17:03;5.07;;;3.63;;
29984;SDS011;17387;42.690;23.328;2023-03-14T15:19:28;10.70;;;3.90;;
29984;SDS011;17387;42.690;23.328;2023-03-14T15:21:57;6.05;;;2.92;;